sensor_id;sensor_type;location;lat;lon;timestamp;P1;durP1;ratioP1;P2;durP2;ratioP2
62707;SDS011;48769;51.624;5.886;2023-08-30T00:01:48;13.65;;;11.27;;
62707;SDS011;48769;51.624;5.886;2023-08-30T00:04:14;14.60;;;11.93;;
62707;SDS011;48769;51.624;5.886;2023-08-30T00:06:39;14.57;;;11.75;;
62707;SDS011;48769;51.624;5.886;2023-08-30T00:09:04;15.65;;;12.63;;
62707;SDS011;48769;51.624;5.886;2023-08-30T00:11:30;14.80;;;12.38;;
62707;SDS011;48769;51.624;5.886;2023-08-30T00:14:02;12.95;;;10.95;;
62707;SDS011;48769;51.624;5.886;2023-08-30T00:16:28;16.35;;;11.80;;
62707;SDS011;48769;51.624;5.886;2023-08-30T00:18:54;12.52;;;10.75;;
62707;SDS011;48769;51.624;5.886;2023-08-30T00:21:19;17.50;;;12.30;;
62707;SDS011;48769;51.624;5.886;2023-08-30T00:23:45;18.67;;;12.02;;
62707;SDS011;48769;51.624;5.886;2023-08-30T00:26:11;15.50;;;12.07;;
62707;SDS011;48769;51.624;5.886;2023-08-30T00:28:36;15.77;;;12.13;;
62707;SDS011;48769;51.624;5.886;2023-08-30T00:31:01;18.80;;;13.68;;
62707;SDS011;48769;51.624;5.886;2023-08-30T00:33:28;15.90;;;11.77;;
62707;SDS011;48769;51.624;5.886;2023-08-30T00:35:57;17.23;;;12.27;;
62707;SDS011;48769;51.624;5.886;2023-08-30T00:38:23;17.38;;;12.20;;
62707;SDS011;48769;51.624;5.886;2023-08-30T00:40:48;13.55;;;11.18;;
62707;SDS011;48769;51.624;5.886;2023-08-30T00:43:14;15.10;;;12.23;;
62707;SDS011;48769;51.624;5.886;2023-08-30T00:45:39;15.20;;;12.30;;
62707;SDS011;48769;51.624;5.886;2023-08-30T00:48:05;16.40;;;11.77;;
62707;SDS011;48769;51.624;5.886;2023-08-30T00:50:31;21.13;;;12.45;;
62707;SDS011;48769;51.624;5.886;2023-08-30T00:52:56;16.90;;;13.40;;
62707;SDS011;48769;51.624;5.886;2023-08-30T00:55:21;18.88;;;13.65;;
62707;SDS011;48769;51.624;5.886;2023-08-30T00:57:47;16.90;;;13.05;;
62707;SDS011;48769;51.624;5.886;2023-08-30T01:00:12;16.90;;;13.45;;
62707;SDS011;48769;51.624;5.886;2023-08-30T01:02:37;16.52;;;13.13;;
62707;SDS011;48769;51.624;5.886;2023-08-30T01:05:03;20.33;;;15.13;;
62707;SDS011;48769;51.624;5.886;2023-08-30T01:07:28;18.60;;;13.18;;
62707;SDS011;48769;51.624;5.886;2023-08-30T01:09:54;14.90;;;12.52;;
62707;SDS011;48769;51.624;5.886;2023-08-30T01:12:24;19.88;;;14.02;;
62707;SDS011;48769;51.624;5.886;2023-08-30T01:15:09;17.45;;;14.52;;
62707;SDS011;48769;51.624;5.886;2023-08-30T01:17:43;23.08;;;14.57;;
62707;SDS011;48769;51.624;5.886;2023-08-30T01:20:09;19.10;;;13.77;;
62707;SDS011;48769;51.624;5.886;2023-08-30T01:25:48;21.55;;;14.77;;
62707;SDS011;48769;51.624;5.886;2023-08-30T01:28:28;19.63;;;13.73;;
62707;SDS011;48769;51.624;5.886;2023-08-30T01:30:56;14.73;;;13.13;;
62707;SDS011;48769;51.624;5.886;2023-08-30T01:33:24;19.02;;;14.75;;
62707;SDS011;48769;51.624;5.886;2023-08-30T01:35:51;16.13;;;14.43;;
62707;SDS011;48769;51.624;5.886;2023-08-30T01:38:19;16.63;;;14.00;;
62707;SDS011;48769;51.624;5.886;2023-08-30T01:40:45;20.95;;;15.23;;
62707;SDS011;48769;51.624;5.886;2023-08-30T01:43:11;18.50;;;14.30;;
62707;SDS011;48769;51.624;5.886;2023-08-30T01:45:42;16.65;;;14.43;;
62707;SDS011;48769;51.624;5.886;2023-08-30T01:48:17;20.67;;;15.43;;
62707;SDS011;48769;51.624;5.886;2023-08-30T01:50:44;20.27;;;15.77;;
62707;SDS011;48769;51.624;5.886;2023-08-30T01:53:11;18.27;;;15.02;;
62707;SDS011;48769;51.624;5.886;2023-08-30T01:55:38;21.40;;;15.98;;
62707;SDS011;48769;51.624;5.886;2023-08-30T01:58:05;18.58;;;14.27;;
62707;SDS011;48769;51.624;5.886;2023-08-30T02:00:31;17.92;;;15.48;;
62707;SDS011;48769;51.624;5.886;2023-08-30T02:02:56;19.77;;;15.55;;
62707;SDS011;48769;51.624;5.886;2023-08-30T02:05:22;17.85;;;15.27;;
62707;SDS011;48769;51.624;5.886;2023-08-30T02:07:58;19.10;;;16.10;;
62707;SDS011;48769;51.624;5.886;2023-08-30T02:10:34;21.33;;;16.65;;
62707;SDS011;48769;51.624;5.886;2023-08-30T02:13:03;20.20;;;16.90;;
62707;SDS011;48769;51.624;5.886;2023-08-30T02:15:29;18.52;;;14.77;;
62707;SDS011;48769;51.624;5.886;2023-08-30T02:17:57;18.10;;;14.93;;
62707;SDS011;48769;51.624;5.886;2023-08-30T02:20:22;21.17;;;15.90;;
62707;SDS011;48769;51.624;5.886;2023-08-30T02:22:48;24.25;;;16.88;;
62707;SDS011;48769;51.624;5.886;2023-08-30T02:25:13;21.50;;;16.73;;
62707;SDS011;48769;51.624;5.886;2023-08-30T02:27:39;21.20;;;17.02;;
62707;SDS011;48769;51.624;5.886;2023-08-30T02:30:04;19.13;;;15.98;;
62707;SDS011;48769;51.624;5.886;2023-08-30T02:32:30;18.95;;;16.00;;
62707;SDS011;48769;51.624;5.886;2023-08-30T02:34:56;22.65;;;17.30;;
62707;SDS011;48769;51.624;5.886;2023-08-30T02:37:21;23.67;;;16.92;;
62707;SDS011;48769;51.624;5.886;2023-08-30T02:39:47;19.83;;;16.52;;
62707;SDS011;48769;51.624;5.886;2023-08-30T02:42:12;19.17;;;15.65;;
62707;SDS011;48769;51.624;5.886;2023-08-30T02:44:38;17.20;;;15.38;;
62707;SDS011;48769;51.624;5.886;2023-08-30T02:47:03;21.02;;;17.08;;
62707;SDS011;48769;51.624;5.886;2023-08-30T02:49:28;20.20;;;16.63;;
62707;SDS011;48769;51.624;5.886;2023-08-30T02:51:57;21.23;;;17.25;;
62707;SDS011;48769;51.624;5.886;2023-08-30T02:54:22;20.88;;;16.70;;
62707;SDS011;48769;51.624;5.886;2023-08-30T02:56:47;19.45;;;16.67;;
62707;SDS011;48769;51.624;5.886;2023-08-30T02:59:14;18.77;;;16.02;;
62707;SDS011;48769;51.624;5.886;2023-08-30T03:01:39;19.58;;;16.42;;
62707;SDS011;48769;51.624;5.886;2023-08-30T03:04:05;17.75;;;15.50;;
62707;SDS011;48769;51.624;5.886;2023-08-30T03:06:32;18.40;;;16.30;;
62707;SDS011;48769;51.624;5.886;2023-08-30T03:08:57;19.02;;;16.73;;
62707;SDS011;48769;51.624;5.886;2023-08-30T03:11:23;21.75;;;17.20;;
62707;SDS011;48769;51.624;5.886;2023-08-30T03:13:48;20.98;;;16.63;;
62707;SDS011;48769;51.624;5.886;2023-08-30T03:16:14;17.98;;;15.50;;
62707;SDS011;48769;51.624;5.886;2023-08-30T03:18:41;24.60;;;17.30;;
62707;SDS011;48769;51.624;5.886;2023-08-30T03:21:07;18.50;;;16.05;;
62707;SDS011;48769;51.624;5.886;2023-08-30T03:23:33;20.75;;;17.52;;
62707;SDS011;48769;51.624;5.886;2023-08-30T03:26:06;19.35;;;16.55;;
62707;SDS011;48769;51.624;5.886;2023-08-30T03:28:42;25.48;;;19.98;;
62707;SDS011;48769;51.624;5.886;2023-08-30T03:31:15;20.30;;;17.38;;
62707;SDS011;48769;51.624;5.886;2023-08-30T03:33:44;21.60;;;17.48;;
62707;SDS011;48769;51.624;5.886;2023-08-30T03:36:11;22.08;;;16.88;;
62707;SDS011;48769;51.624;5.886;2023-08-30T03:38:37;20.60;;;17.65;;
62707;SDS011;48769;51.624;5.886;2023-08-30T03:41:03;20.10;;;17.85;;
62707;SDS011;48769;51.624;5.886;2023-08-30T03:43:29;21.63;;;17.63;;
62707;SDS011;48769;51.624;5.886;2023-08-30T03:45:54;22.92;;;18.35;;
62707;SDS011;48769;51.624;5.886;2023-08-30T03:48:19;25.60;;;18.48;;
62707;SDS011;48769;51.624;5.886;2023-08-30T03:50:45;24.33;;;18.35;;
62707;SDS011;48769;51.624;5.886;2023-08-30T03:53:10;23.60;;;18.70;;
62707;SDS011;48769;51.624;5.886;2023-08-30T03:55:35;21.88;;;17.88;;
62707;SDS011;48769;51.624;5.886;2023-08-30T03:58:01;21.45;;;18.25;;
62707;SDS011;48769;51.624;5.886;2023-08-30T04:00:26;25.60;;;19.55;;
62707;SDS011;48769;51.624;5.886;2023-08-30T04:02:51;23.15;;;19.13;;
62707;SDS011;48769;51.624;5.886;2023-08-30T04:05:17;21.33;;;18.75;;
62707;SDS011;48769;51.624;5.886;2023-08-30T04:07:42;26.65;;;20.17;;
62707;SDS011;48769;51.624;5.886;2023-08-30T04:10:07;22.25;;;18.92;;
62707;SDS011;48769;51.624;5.886;2023-08-30T04:12:33;20.95;;;18.25;;
62707;SDS011;48769;51.624;5.886;2023-08-30T04:15:02;25.75;;;19.20;;
62707;SDS011;48769;51.624;5.886;2023-08-30T04:17:28;23.42;;;19.38;;
62707;SDS011;48769;51.624;5.886;2023-08-30T04:19:53;22.30;;;18.05;;
62707;SDS011;48769;51.624;5.886;2023-08-30T04:22:19;25.35;;;19.30;;
62707;SDS011;48769;51.624;5.886;2023-08-30T04:24:45;22.02;;;18.08;;
62707;SDS011;48769;51.624;5.886;2023-08-30T04:27:11;26.15;;;18.48;;
62707;SDS011;48769;51.624;5.886;2023-08-30T04:29:36;21.75;;;17.70;;
62707;SDS011;48769;51.624;5.886;2023-08-30T04:32:02;27.50;;;19.52;;
62707;SDS011;48769;51.624;5.886;2023-08-30T04:34:27;25.13;;;18.25;;
62707;SDS011;48769;51.624;5.886;2023-08-30T04:36:54;20.55;;;17.88;;
62707;SDS011;48769;51.624;5.886;2023-08-30T04:39:19;22.73;;;17.40;;
62707;SDS011;48769;51.624;5.886;2023-08-30T04:41:44;28.02;;;19.92;;
62707;SDS011;48769;51.624;5.886;2023-08-30T04:44:10;23.00;;;19.45;;
62707;SDS011;48769;51.624;5.886;2023-08-30T04:46:35;23.17;;;19.42;;
62707;SDS011;48769;51.624;5.886;2023-08-30T04:49:00;25.63;;;19.45;;
62707;SDS011;48769;51.624;5.886;2023-08-30T04:51:26;25.55;;;19.23;;
62707;SDS011;48769;51.624;5.886;2023-08-30T04:53:51;27.42;;;22.10;;
62707;SDS011;48769;51.624;5.886;2023-08-30T04:56:16;27.27;;;20.50;;
62707;SDS011;48769;51.624;5.886;2023-08-30T04:58:43;24.83;;;19.83;;
62707;SDS011;48769;51.624;5.886;2023-08-30T05:01:09;35.83;;;23.95;;
62707;SDS011;48769;51.624;5.886;2023-08-30T05:03:34;24.42;;;21.52;;
62707;SDS011;48769;51.624;5.886;2023-08-30T05:06:00;28.35;;;22.45;;
62707;SDS011;48769;51.624;5.886;2023-08-30T05:08:25;27.38;;;23.20;;
62707;SDS011;48769;51.624;5.886;2023-08-30T05:10:53;32.25;;;22.60;;
62707;SDS011;48769;51.624;5.886;2023-08-30T05:13:19;27.77;;;22.40;;
62707;SDS011;48769;51.624;5.886;2023-08-30T05:15:44;30.85;;;23.73;;
62707;SDS011;48769;51.624;5.886;2023-08-30T05:18:10;30.83;;;22.30;;
62707;SDS011;48769;51.624;5.886;2023-08-30T05:20:35;29.20;;;24.45;;
62707;SDS011;48769;51.624;5.886;2023-08-30T05:23:00;30.42;;;24.55;;
62707;SDS011;48769;51.624;5.886;2023-08-30T05:25:25;32.38;;;24.35;;
62707;SDS011;48769;51.624;5.886;2023-08-30T05:27:51;34.33;;;25.45;;
62707;SDS011;48769;51.624;5.886;2023-08-30T05:30:16;33.47;;;25.40;;
62707;SDS011;48769;51.624;5.886;2023-08-30T05:32:41;33.67;;;26.05;;
62707;SDS011;48769;51.624;5.886;2023-08-30T05:35:07;31.30;;;26.00;;
62707;SDS011;48769;51.624;5.886;2023-08-30T05:37:32;35.15;;;25.88;;
62707;SDS011;48769;51.624;5.886;2023-08-30T05:39:57;31.33;;;26.33;;
62707;SDS011;48769;51.624;5.886;2023-08-30T05:42:23;34.00;;;26.15;;
62707;SDS011;48769;51.624;5.886;2023-08-30T05:44:48;33.03;;;26.05;;
62707;SDS011;48769;51.624;5.886;2023-08-30T05:47:13;38.33;;;26.27;;
62707;SDS011;48769;51.624;5.886;2023-08-30T05:49:40;33.40;;;25.33;;
62707;SDS011;48769;51.624;5.886;2023-08-30T05:52:06;31.55;;;26.13;;
62707;SDS011;48769;51.624;5.886;2023-08-30T05:54:31;33.08;;;27.20;;
62707;SDS011;48769;51.624;5.886;2023-08-30T05:56:58;37.33;;;27.00;;
62707;SDS011;48769;51.624;5.886;2023-08-30T05:59:24;37.35;;;26.67;;
62707;SDS011;48769;51.624;5.886;2023-08-30T06:01:49;36.20;;;26.50;;
62707;SDS011;48769;51.624;5.886;2023-08-30T06:04:14;30.77;;;26.83;;
62707;SDS011;48769;51.624;5.886;2023-08-30T06:06:40;31.55;;;26.50;;
62707;SDS011;48769;51.624;5.886;2023-08-30T06:09:05;34.67;;;25.92;;
62707;SDS011;48769;51.624;5.886;2023-08-30T06:11:30;30.52;;;25.92;;
62707;SDS011;48769;51.624;5.886;2023-08-30T06:13:57;35.10;;;26.65;;
62707;SDS011;48769;51.624;5.886;2023-08-30T06:16:24;35.90;;;26.90;;
62707;SDS011;48769;51.624;5.886;2023-08-30T06:18:49;36.53;;;25.98;;
62707;SDS011;48769;51.624;5.886;2023-08-30T06:21:14;39.05;;;27.65;;
62707;SDS011;48769;51.624;5.886;2023-08-30T06:23:40;38.25;;;26.55;;
62707;SDS011;48769;51.624;5.886;2023-08-30T06:26:05;30.88;;;26.95;;
62707;SDS011;48769;51.624;5.886;2023-08-30T06:28:31;34.13;;;28.27;;
62707;SDS011;48769;51.624;5.886;2023-08-30T06:30:56;40.03;;;28.55;;
62707;SDS011;48769;51.624;5.886;2023-08-30T06:33:22;38.65;;;27.98;;
62707;SDS011;48769;51.624;5.886;2023-08-30T06:35:48;35.10;;;27.75;;
62707;SDS011;48769;51.624;5.886;2023-08-30T06:38:18;45.33;;;28.25;;
62707;SDS011;48769;51.624;5.886;2023-08-30T06:40:44;40.33;;;29.38;;
62707;SDS011;48769;51.624;5.886;2023-08-30T06:43:10;37.28;;;28.77;;
62707;SDS011;48769;51.624;5.886;2023-08-30T06:45:36;31.70;;;27.42;;
62707;SDS011;48769;51.624;5.886;2023-08-30T06:48:03;31.95;;;27.58;;
62707;SDS011;48769;51.624;5.886;2023-08-30T06:50:29;38.10;;;28.65;;
62707;SDS011;48769;51.624;5.886;2023-08-30T06:52:54;37.80;;;28.60;;
62707;SDS011;48769;51.624;5.886;2023-08-30T06:55:19;37.65;;;29.73;;
62707;SDS011;48769;51.624;5.886;2023-08-30T06:57:47;34.40;;;27.83;;
62707;SDS011;48769;51.624;5.886;2023-08-30T07:00:13;36.47;;;29.48;;
62707;SDS011;48769;51.624;5.886;2023-08-30T07:02:39;33.58;;;28.00;;
62707;SDS011;48769;51.624;5.886;2023-08-30T07:05:05;37.42;;;29.33;;
62707;SDS011;48769;51.624;5.886;2023-08-30T07:07:31;30.52;;;26.63;;
62707;SDS011;48769;51.624;5.886;2023-08-30T07:09:57;36.92;;;27.70;;
62707;SDS011;48769;51.624;5.886;2023-08-30T07:12:22;33.50;;;27.08;;
62707;SDS011;48769;51.624;5.886;2023-08-30T07:14:48;37.10;;;28.73;;
62707;SDS011;48769;51.624;5.886;2023-08-30T07:17:13;34.78;;;28.45;;
62707;SDS011;48769;51.624;5.886;2023-08-30T07:19:39;37.03;;;28.95;;
62707;SDS011;48769;51.624;5.886;2023-08-30T07:22:04;37.20;;;27.92;;
62707;SDS011;48769;51.624;5.886;2023-08-30T07:24:30;35.88;;;28.02;;
62707;SDS011;48769;51.624;5.886;2023-08-30T07:26:55;35.47;;;28.45;;
62707;SDS011;48769;51.624;5.886;2023-08-30T07:29:20;39.80;;;28.15;;
62707;SDS011;48769;51.624;5.886;2023-08-30T07:31:46;36.67;;;28.33;;
62707;SDS011;48769;51.624;5.886;2023-08-30T07:34:12;33.78;;;28.13;;
62707;SDS011;48769;51.624;5.886;2023-08-30T07:36:37;36.15;;;26.33;;
62707;SDS011;48769;51.624;5.886;2023-08-30T07:39:02;35.13;;;28.48;;
62707;SDS011;48769;51.624;5.886;2023-08-30T07:41:28;38.33;;;27.90;;
62707;SDS011;48769;51.624;5.886;2023-08-30T07:43:54;30.08;;;23.10;;
62707;SDS011;48769;51.624;5.886;2023-08-30T07:46:19;32.13;;;22.88;;
62707;SDS011;48769;51.624;5.886;2023-08-30T07:48:44;33.65;;;24.08;;
62707;SDS011;48769;51.624;5.886;2023-08-30T07:51:10;35.40;;;26.77;;
62707;SDS011;48769;51.624;5.886;2023-08-30T07:53:35;43.17;;;27.90;;
62707;SDS011;48769;51.624;5.886;2023-08-30T07:56:00;39.72;;;28.30;;
62707;SDS011;48769;51.624;5.886;2023-08-30T07:58:25;38.65;;;27.23;;
62707;SDS011;48769;51.624;5.886;2023-08-30T08:00:56;42.88;;;30.10;;
62707;SDS011;48769;51.624;5.886;2023-08-30T08:03:21;46.30;;;31.05;;
62707;SDS011;48769;51.624;5.886;2023-08-30T08:05:47;42.90;;;30.73;;
62707;SDS011;48769;51.624;5.886;2023-08-30T08:08:12;43.08;;;31.15;;
62707;SDS011;48769;51.624;5.886;2023-08-30T08:10:39;42.55;;;30.05;;
62707;SDS011;48769;51.624;5.886;2023-08-30T08:13:04;45.17;;;31.48;;
62707;SDS011;48769;51.624;5.886;2023-08-30T08:15:30;43.35;;;32.60;;
62707;SDS011;48769;51.624;5.886;2023-08-30T08:17:58;40.15;;;30.42;;
62707;SDS011;48769;51.624;5.886;2023-08-30T08:20:28;45.25;;;32.33;;
62707;SDS011;48769;51.624;5.886;2023-08-30T08:22:54;44.25;;;33.17;;
62707;SDS011;48769;51.624;5.886;2023-08-30T08:25:19;52.50;;;35.50;;
62707;SDS011;48769;51.624;5.886;2023-08-30T08:27:47;48.42;;;33.35;;
62707;SDS011;48769;51.624;5.886;2023-08-30T08:30:12;47.30;;;32.63;;
62707;SDS011;48769;51.624;5.886;2023-08-30T08:32:38;44.85;;;32.05;;
62707;SDS011;48769;51.624;5.886;2023-08-30T08:35:03;41.90;;;32.35;;
62707;SDS011;48769;51.624;5.886;2023-08-30T08:37:29;46.25;;;31.67;;
62707;SDS011;48769;51.624;5.886;2023-08-30T08:39:54;39.15;;;29.73;;
62707;SDS011;48769;51.624;5.886;2023-08-30T08:42:20;38.13;;;28.20;;
62707;SDS011;48769;51.624;5.886;2023-08-30T08:44:46;40.45;;;29.83;;
62707;SDS011;48769;51.624;5.886;2023-08-30T08:47:16;39.15;;;27.27;;
62707;SDS011;48769;51.624;5.886;2023-08-30T08:49:42;33.30;;;24.63;;
62707;SDS011;48769;51.624;5.886;2023-08-30T08:52:07;32.47;;;22.85;;
62707;SDS011;48769;51.624;5.886;2023-08-30T08:54:33;35.03;;;23.58;;
62707;SDS011;48769;51.624;5.886;2023-08-30T08:56:58;27.55;;;21.48;;
62707;SDS011;48769;51.624;5.886;2023-08-30T08:59:24;28.65;;;21.48;;
62707;SDS011;48769;51.624;5.886;2023-08-30T09:01:50;21.08;;;16.30;;
62707;SDS011;48769;51.624;5.886;2023-08-30T09:04:15;24.67;;;19.13;;
62707;SDS011;48769;51.624;5.886;2023-08-30T09:06:41;22.77;;;16.65;;
62707;SDS011;48769;51.624;5.886;2023-08-30T09:09:08;23.63;;;16.42;;
62707;SDS011;48769;51.624;5.886;2023-08-30T09:11:33;22.30;;;16.63;;
62707;SDS011;48769;51.624;5.886;2023-08-30T09:13:59;23.05;;;15.48;;
62707;SDS011;48769;51.624;5.886;2023-08-30T09:16:24;19.70;;;14.73;;
62707;SDS011;48769;51.624;5.886;2023-08-30T09:18:59;18.83;;;14.95;;
62707;SDS011;48769;51.624;5.886;2023-08-30T09:21:25;17.00;;;12.57;;
62707;SDS011;48769;51.624;5.886;2023-08-30T09:24:01;17.77;;;13.73;;
62707;SDS011;48769;51.624;5.886;2023-08-30T09:26:29;17.45;;;12.65;;
62707;SDS011;48769;51.624;5.886;2023-08-30T09:29:00;14.45;;;12.82;;
62707;SDS011;48769;51.624;5.886;2023-08-30T09:31:32;16.13;;;13.73;;
62707;SDS011;48769;51.624;5.886;2023-08-30T09:33:58;20.65;;;13.65;;
62707;SDS011;48769;51.624;5.886;2023-08-30T09:36:24;16.30;;;12.50;;
62707;SDS011;48769;51.624;5.886;2023-08-30T09:38:49;17.38;;;12.85;;
62707;SDS011;48769;51.624;5.886;2023-08-30T09:41:15;15.23;;;12.63;;
62707;SDS011;48769;51.624;5.886;2023-08-30T09:43:44;18.70;;;14.35;;
62707;SDS011;48769;51.624;5.886;2023-08-30T09:46:09;16.35;;;12.18;;
62707;SDS011;48769;51.624;5.886;2023-08-30T09:48:35;16.63;;;13.25;;
62707;SDS011;48769;51.624;5.886;2023-08-30T09:51:03;14.95;;;12.45;;
62707;SDS011;48769;51.624;5.886;2023-08-30T09:53:33;18.27;;;13.95;;
62707;SDS011;48769;51.624;5.886;2023-08-30T09:56:05;17.13;;;13.82;;
62707;SDS011;48769;51.624;5.886;2023-08-30T09:58:33;19.30;;;12.90;;
62707;SDS011;48769;51.624;5.886;2023-08-30T10:00:58;15.77;;;13.75;;
62707;SDS011;48769;51.624;5.886;2023-08-30T10:03:27;19.05;;;14.32;;
62707;SDS011;48769;51.624;5.886;2023-08-30T10:05:53;17.35;;;13.63;;
62707;SDS011;48769;51.624;5.886;2023-08-30T10:08:19;14.65;;;13.07;;
62707;SDS011;48769;51.624;5.886;2023-08-30T10:10:45;18.50;;;14.02;;
62707;SDS011;48769;51.624;5.886;2023-08-30T10:13:11;17.40;;;13.55;;
62707;SDS011;48769;51.624;5.886;2023-08-30T10:15:39;17.88;;;14.07;;
62707;SDS011;48769;51.624;5.886;2023-08-30T10:18:09;15.43;;;13.07;;
62707;SDS011;48769;51.624;5.886;2023-08-30T10:20:38;16.88;;;13.38;;
62707;SDS011;48769;51.624;5.886;2023-08-30T10:23:04;16.83;;;13.65;;
62707;SDS011;48769;51.624;5.886;2023-08-30T10:25:31;15.07;;;13.48;;
62707;SDS011;48769;51.624;5.886;2023-08-30T10:27:57;16.75;;;13.38;;
62707;SDS011;48769;51.624;5.886;2023-08-30T10:30:23;15.70;;;13.00;;
62707;SDS011;48769;51.624;5.886;2023-08-30T10:32:50;18.77;;;13.10;;
62707;SDS011;48769;51.624;5.886;2023-08-30T10:35:17;14.73;;;11.63;;
62707;SDS011;48769;51.624;5.886;2023-08-30T10:37:53;16.55;;;12.45;;
62707;SDS011;48769;51.624;5.886;2023-08-30T10:40:19;15.73;;;12.85;;
62707;SDS011;48769;51.624;5.886;2023-08-30T10:42:47;15.10;;;13.60;;
62707;SDS011;48769;51.624;5.886;2023-08-30T10:45:12;15.75;;;13.10;;
62707;SDS011;48769;51.624;5.886;2023-08-30T10:47:37;14.75;;;12.88;;
62707;SDS011;48769;51.624;5.886;2023-08-30T10:50:07;16.30;;;12.88;;
62707;SDS011;48769;51.624;5.886;2023-08-30T10:52:34;15.68;;;14.10;;
62707;SDS011;48769;51.624;5.886;2023-08-30T10:55:10;17.10;;;13.82;;
62707;SDS011;48769;51.624;5.886;2023-08-30T10:57:37;16.42;;;14.73;;
62707;SDS011;48769;51.624;5.886;2023-08-30T11:00:11;15.65;;;13.73;;
62707;SDS011;48769;51.624;5.886;2023-08-30T11:02:52;14.65;;;12.50;;
62707;SDS011;48769;51.624;5.886;2023-08-30T11:05:19;15.43;;;13.63;;
62707;SDS011;48769;51.624;5.886;2023-08-30T11:07:47;14.95;;;13.23;;
62707;SDS011;48769;51.624;5.886;2023-08-30T11:10:15;14.52;;;12.98;;
62707;SDS011;48769;51.624;5.886;2023-08-30T11:12:40;15.45;;;13.95;;
62707;SDS011;48769;51.624;5.886;2023-08-30T11:15:07;14.90;;;13.50;;
62707;SDS011;48769;51.624;5.886;2023-08-30T11:17:33;14.43;;;12.98;;
62707;SDS011;48769;51.624;5.886;2023-08-30T11:20:06;14.80;;;13.40;;
62707;SDS011;48769;51.624;5.886;2023-08-30T11:22:51;15.05;;;13.55;;
62707;SDS011;48769;51.624;5.886;2023-08-30T11:25:20;15.30;;;13.75;;
62707;SDS011;48769;51.624;5.886;2023-08-30T11:27:46;15.75;;;14.15;;
62707;SDS011;48769;51.624;5.886;2023-08-30T11:30:12;15.45;;;13.98;;
62707;SDS011;48769;51.624;5.886;2023-08-30T11:32:38;16.02;;;14.32;;
62707;SDS011;48769;51.624;5.886;2023-08-30T11:35:05;16.02;;;13.68;;
62707;SDS011;48769;51.624;5.886;2023-08-30T11:37:31;14.35;;;12.95;;
62707;SDS011;48769;51.624;5.886;2023-08-30T11:39:57;13.75;;;12.35;;
62707;SDS011;48769;51.624;5.886;2023-08-30T11:42:22;15.90;;;13.85;;
62707;SDS011;48769;51.624;5.886;2023-08-30T11:44:49;14.52;;;13.02;;
62707;SDS011;48769;51.624;5.886;2023-08-30T11:47:18;14.73;;;13.18;;
62707;SDS011;48769;51.624;5.886;2023-08-30T11:49:46;15.25;;;13.52;;
62707;SDS011;48769;51.624;5.886;2023-08-30T11:52:13;15.98;;;14.27;;
62707;SDS011;48769;51.624;5.886;2023-08-30T11:54:38;17.17;;;14.18;;
62707;SDS011;48769;51.624;5.886;2023-08-30T11:57:04;13.77;;;12.38;;
62707;SDS011;48769;51.624;5.886;2023-08-30T11:59:29;14.35;;;12.95;;
62707;SDS011;48769;51.624;5.886;2023-08-30T12:01:59;11.90;;;10.63;;
62707;SDS011;48769;51.624;5.886;2023-08-30T12:04:25;11.57;;;10.43;;
62707;SDS011;48769;51.624;5.886;2023-08-30T12:06:51;16.27;;;10.70;;
62707;SDS011;48769;51.624;5.886;2023-08-30T12:09:19;12.98;;;10.00;;
62707;SDS011;48769;51.624;5.886;2023-08-30T12:11:47;14.88;;;10.20;;
62707;SDS011;48769;51.624;5.886;2023-08-30T12:14:13;15.05;;;10.25;;
62707;SDS011;48769;51.624;5.886;2023-08-30T12:16:39;14.90;;;10.65;;
62707;SDS011;48769;51.624;5.886;2023-08-30T12:19:11;12.45;;;11.13;;
62707;SDS011;48769;51.624;5.886;2023-08-30T12:21:41;15.75;;;10.57;;
62707;SDS011;48769;51.624;5.886;2023-08-30T12:24:08;15.70;;;9.82;;
62707;SDS011;48769;51.624;5.886;2023-08-30T12:26:33;13.48;;;8.77;;
62707;SDS011;48769;51.624;5.886;2023-08-30T12:28:59;13.88;;;8.57;;
62707;SDS011;48769;51.624;5.886;2023-08-30T12:31:24;10.60;;;7.80;;
62707;SDS011;48769;51.624;5.886;2023-08-30T12:33:50;10.02;;;7.50;;
62707;SDS011;48769;51.624;5.886;2023-08-30T12:36:15;18.50;;;8.20;;
62707;SDS011;48769;51.624;5.886;2023-08-30T12:38:40;12.75;;;7.57;;
62707;SDS011;48769;51.624;5.886;2023-08-30T12:41:06;9.23;;;4.35;;
62707;SDS011;48769;51.624;5.886;2023-08-30T12:43:31;7.10;;;3.70;;
62707;SDS011;48769;51.624;5.886;2023-08-30T12:45:56;8.60;;;3.22;;
62707;SDS011;48769;51.624;5.886;2023-08-30T12:48:21;9.15;;;3.30;;
62707;SDS011;48769;51.624;5.886;2023-08-30T12:50:48;8.98;;;3.92;;
62707;SDS011;48769;51.624;5.886;2023-08-30T12:53:13;12.23;;;3.75;;
62707;SDS011;48769;51.624;5.886;2023-08-30T12:55:41;11.27;;;3.65;;
62707;SDS011;48769;51.624;5.886;2023-08-30T12:58:07;11.88;;;4.15;;
62707;SDS011;48769;51.624;5.886;2023-08-30T13:00:33;11.27;;;4.22;;
62707;SDS011;48769;51.624;5.886;2023-08-30T13:02:59;14.35;;;3.90;;
62707;SDS011;48769;51.624;5.886;2023-08-30T13:05:24;8.18;;;3.92;;
62707;SDS011;48769;51.624;5.886;2023-08-30T13:07:50;12.15;;;3.95;;
62707;SDS011;48769;51.624;5.886;2023-08-30T13:10:15;11.55;;;4.07;;
62707;SDS011;48769;51.624;5.886;2023-08-30T13:12:41;11.50;;;3.97;;
62707;SDS011;48769;51.624;5.886;2023-08-30T13:15:08;9.27;;;3.45;;
62707;SDS011;48769;51.624;5.886;2023-08-30T13:17:34;8.65;;;3.90;;
62707;SDS011;48769;51.624;5.886;2023-08-30T13:19:59;8.13;;;3.40;;
62707;SDS011;48769;51.624;5.886;2023-08-30T13:22:26;11.18;;;3.88;;
62707;SDS011;48769;51.624;5.886;2023-08-30T13:24:51;12.00;;;4.00;;
62707;SDS011;48769;51.624;5.886;2023-08-30T13:27:17;10.40;;;4.55;;
62707;SDS011;48769;51.624;5.886;2023-08-30T13:29:43;14.25;;;4.15;;
62707;SDS011;48769;51.624;5.886;2023-08-30T13:32:08;12.57;;;4.68;;
62707;SDS011;48769;51.624;5.886;2023-08-30T13:34:33;14.63;;;4.15;;
62707;SDS011;48769;51.624;5.886;2023-08-30T13:36:58;13.60;;;3.50;;
62707;SDS011;48769;51.624;5.886;2023-08-30T13:39:24;7.57;;;3.42;;
62707;SDS011;48769;51.624;5.886;2023-08-30T13:41:49;11.25;;;3.83;;
62707;SDS011;48769;51.624;5.886;2023-08-30T13:44:15;11.18;;;3.45;;
62707;SDS011;48769;51.624;5.886;2023-08-30T13:46:40;9.80;;;3.30;;
62707;SDS011;48769;51.624;5.886;2023-08-30T13:49:06;16.67;;;4.60;;
62707;SDS011;48769;51.624;5.886;2023-08-30T13:51:31;7.88;;;3.05;;
62707;SDS011;48769;51.624;5.886;2023-08-30T13:53:57;6.63;;;3.13;;
62707;SDS011;48769;51.624;5.886;2023-08-30T13:56:23;6.45;;;2.60;;
62707;SDS011;48769;51.624;5.886;2023-08-30T13:58:49;10.60;;;3.53;;
62707;SDS011;48769;51.624;5.886;2023-08-30T14:01:14;11.07;;;3.00;;
62707;SDS011;48769;51.624;5.886;2023-08-30T14:03:40;10.50;;;3.22;;
62707;SDS011;48769;51.624;5.886;2023-08-30T14:06:05;10.07;;;4.13;;
62707;SDS011;48769;51.624;5.886;2023-08-30T14:08:31;15.00;;;4.47;;
62707;SDS011;48769;51.624;5.886;2023-08-30T14:10:56;11.52;;;3.75;;
62707;SDS011;48769;51.624;5.886;2023-08-30T14:13:22;10.63;;;3.50;;
62707;SDS011;48769;51.624;5.886;2023-08-30T14:15:47;11.10;;;4.00;;
62707;SDS011;48769;51.624;5.886;2023-08-30T14:18:13;15.32;;;3.30;;
62707;SDS011;48769;51.624;5.886;2023-08-30T14:20:40;14.82;;;3.47;;
62707;SDS011;48769;51.624;5.886;2023-08-30T14:23:06;10.55;;;2.78;;